Time;durP1;ratioP1;P1;durP2;ratioP2;P2;SDS_P1;SDS_P2;PMS_P1;PMS_P2;Temp;Humidity;BMP_temperature;BMP_pressure;BME280_temperature;BME280_humidity;BME280_pressure;Samples;Min_cycle;Max_cycle;Signal;HPM_P1;HPM_P2
2022/12/07 00:00:02;;;;;;;7.47;1.67;;;25.70;99.90;;;;;;5068423;28;20196;-81
2022/12/07 00:02:34;;;;;;;6.90;1.20;;;25.60;99.90;;;;;;5070218;28;20199;-81
2022/12/07 00:05:05;;;;;;;4.57;1.20;;;25.60;99.90;;;;;;5069291;28;20230;-79
2022/12/07 00:07:36;;;;;;;4.65;1.20;;;25.60;99.90;;;;;;5066954;28;20228;-79
2022/12/07 00:10:10;;;;;;;4.60;1.10;;;25.70;99.90;;;;;;5069276;28;20198;-79
2022/12/07 00:12:41;;;;;;;4.80;1.20;;;25.80;99.90;;;;;;5068052;28;20227;-79
2022/12/07 00:15:12;;;;;;;3.17;1.10;;;26.20;99.90;;;;;;5068592;28;20185;-80
2022/12/07 00:17:43;;;;;;;5.68;1.30;;;26.50;99.90;;;;;;5069050;28;20196;-79
2022/12/07 00:20:14;;;;;;;4.18;1.30;;;26.50;99.90;;;;;;5067938;28;20236;-81
2022/12/07 00:22:45;;;;;;;4.80;0.93;;;26.50;99.90;;;;;;5069469;28;20193;-79
2022/12/07 00:25:18;;;;;;;2.15;0.98;;;26.60;99.90;;;;;;5068444;28;20573;-79
2022/12/07 00:27:48;;;;;;;4.40;1.10;;;26.70;99.90;;;;;;5070530;28;20185;-80
2022/12/07 00:30:19;;;;;;;4.05;1.15;;;26.90;99.90;;;;;;5069302;28;20651;-77
2022/12/07 00:32:50;;;;;;;3.92;0.90;;;27.00;99.90;;;;;;5072308;28;20219;-79
2022/12/07 00:35:21;;;;;;;6.55;1.20;;;27.10;99.90;;;;;;5071281;28;20644;-81
2022/12/07 00:37:52;;;;;;;3.25;1.05;;;27.30;99.90;;;;;;5069532;28;20181;-77
2022/12/07 00:40:24;;;;;;;2.45;1.00;;;27.60;99.90;;;;;;5069407;28;20209;-79
2022/12/07 00:43:04;;;;;;;1.77;0.90;;;27.80;99.90;;;;;;5072383;28;20604;-79
2022/12/07 00:45:35;;;;;;;2.72;0.80;;;28.00;99.90;;;;;;5070490;28;20268;-79
2022/12/07 00:48:05;;;;;;;2.63;0.80;;;28.00;99.90;;;;;;5071797;28;20236;-80
2022/12/07 00:50:36;;;;;;;4.38;0.80;;;28.00;99.90;;;;;;5072352;28;20193;-79
2022/12/07 00:53:07;;;;;;;3.50;0.80;;;28.00;99.90;;;;;;5065440;28;20213;-78
2022/12/07 00:55:40;;;;;;;2.92;0.80;;;28.10;99.90;;;;;;5069808;28;20189;-78
2022/12/07 00:58:12;;;;;;;2.22;0.70;;;28.00;99.90;;;;;;5063586;28;20207;-79
2022/12/07 01:00:43;;;;;;;1.73;0.80;;;27.90;99.90;;;;;;5069839;28;20701;-80
2022/12/07 01:03:16;;;;;;;6.32;1.23;;;27.70;99.90;;;;;;5067150;28;20185;-79
2022/12/07 01:05:54;;;;;;;2.63;0.73;;;27.50;99.90;;;;;;5070181;28;20212;-75
2022/12/07 01:08:26;;;;;;;2.83;0.70;;;27.30;99.90;;;;;;5071574;28;20185;-79
2022/12/07 01:11:05;;;;;;;4.20;0.80;;;27.10;99.90;;;;;;5069927;28;20197;-78
2022/12/07 01:13:37;;;;;;;7.10;0.98;;;27.00;99.90;;;;;;5071083;28;20213;-78
2022/12/07 01:16:10;;;;;;;2.92;0.88;;;26.90;99.90;;;;;;5067145;28;20189;-79
2022/12/07 01:18:41;;;;;;;1.70;0.70;;;26.80;99.90;;;;;;5066567;28;20648;-78
2022/12/07 01:21:14;;;;;;;2.22;0.88;;;26.70;99.90;;;;;;5065715;28;20232;-79
2022/12/07 01:23:46;;;;;;;2.92;0.70;;;26.70;99.90;;;;;;5064447;28;20215;-79
2022/12/07 01:26:22;;;;;;;2.55;0.70;;;26.60;99.90;;;;;;5067066;28;20192;-80
2022/12/07 01:28:54;;;;;;;6.20;1.60;;;26.50;99.90;;;;;;5069112;28;20200;-79
2022/12/07 01:31:26;;;;;;;5.50;1.05;;;26.50;99.90;;;;;;5064458;28;20914;-79
2022/12/07 01:33:58;;;;;;;1.77;0.82;;;26.50;99.90;;;;;;5068337;28;20227;-79
2022/12/07 01:36:31;;;;;;;1.55;0.82;;;26.50;99.90;;;;;;5066469;28;20212;-79
2022/12/07 01:39:03;;;;;;;4.20;1.17;;;26.40;99.90;;;;;;5067476;28;20192;-79
2022/12/07 01:41:39;;;;;;;4.03;1.15;;;26.40;99.90;;;;;;5070108;28;20203;-80
2022/12/07 01:44:21;;;;;;;2.72;1.08;;;26.40;99.90;;;;;;5070539;28;20216;-79
2022/12/07 01:46:53;;;;;;;3.20;0.90;;;26.30;99.90;;;;;;5070645;28;20193;-80
2022/12/07 01:49:34;;;;;;;2.78;0.98;;;26.30;99.90;;;;;;5069496;28;20228;-80
2022/12/07 01:52:16;;;;;;;2.85;1.02;;;26.20;99.90;;;;;;5069223;28;20191;-80
2022/12/07 01:54:50;;;;;;;5.03;1.00;;;26.20;99.90;;;;;;5065635;28;20286;-79
2022/12/07 01:57:23;;;;;;;4.65;0.88;;;26.20;99.90;;;;;;5069352;28;20193;-81
2022/12/07 01:59:56;;;;;;;2.45;0.80;;;26.10;99.90;;;;;;5070835;28;20232;-79
2022/12/07 02:02:29;;;;;;;4.10;1.13;;;26.20;99.90;;;;;;5066791;28;20571;-79
2022/12/07 02:05:01;;;;;;;9.70;1.48;;;26.20;99.90;;;;;;5065301;28;20221;-78
2022/12/07 02:07:33;;;;;;;5.57;1.40;;;26.20;99.90;;;;;;5067977;28;20201;-79
2022/12/07 02:10:17;;;;;;;5.07;1.30;;;26.20;99.90;;;;;;5067688;28;20196;-80
2022/12/07 02:12:52;;;;;;;6.18;1.40;;;26.10;99.90;;;;;;5066093;28;20213;-78
2022/12/07 02:15:28;;;;;;;4.68;1.20;;;26.10;99.90;;;;;;5068198;28;20577;-79
2022/12/07 02:18:04;;;;;;;7.07;1.73;;;26.10;99.90;;;;;;5071720;28;20231;-80
2022/12/07 02:20:41;;;;;;;8.00;4.20;;;26.10;99.90;;;;;;5066981;28;20238;-79
2022/12/07 02:23:50;;;;;;;4.13;1.65;;;26.10;99.90;;;;;;5067449;28;20201;-80
2022/12/07 02:26:47;;;;;;;6.35;1.40;;;26.20;99.90;;;;;;5051770;28;20197;-79
2022/12/07 02:29:24;;;;;;;4.03;1.23;;;26.30;99.90;;;;;;5071753;28;20196;-80
2022/12/07 02:32:05;;;;;;;6.97;1.40;;;26.40;99.90;;;;;;5064964;28;21376;-79
2022/12/07 02:34:45;;;;;;;3.10;1.27;;;26.40;99.90;;;;;;5063390;28;20579;-79
2022/12/07 02:37:25;;;;;;;7.18;1.50;;;26.40;99.90;;;;;;5065884;28;20627;-81
2022/12/07 02:40:00;;;;;;;5.28;1.90;;;26.40;99.90;;;;;;5064983;28;20224;-79
2022/12/07 02:42:38;;;;;;;9.13;2.30;;;26.30;99.90;;;;;;5073458;28;20197;-80
2022/12/07 02:45:13;;;;;;;5.40;2.05;;;26.30;99.90;;;;;;5072665;28;20197;-80
2022/12/07 02:47:46;;;;;;;7.18;2.33;;;26.10;99.90;;;;;;5072351;28;20188;-80
2022/12/07 02:50:16;;;;;;;8.43;2.33;;;26.00;99.90;;;;;;5067314;28;20572;-82
2022/12/07 02:52:47;;;;;;;7.55;1.80;;;25.90;99.90;;;;;;5069972;28;20193;-79
2022/12/07 02:55:22;;;;;;;10.85;2.20;;;25.80;99.90;;;;;;5070545;28;20215;-79
2022/12/07 02:58:08;;;;;;;9.90;2.38;;;25.70;99.90;;;;;;5068791;28;20185;-79
2022/12/07 03:00:47;;;;;;;9.38;2.47;;;25.70;99.90;;;;;;5066576;28;20193;-79
2022/12/07 03:03:19;;;;;;;6.53;1.92;;;25.70;99.90;;;;;;5066388;28;20194;-80
2022/12/07 03:06:07;;;;;;;8.45;1.95;;;25.60;99.90;;;;;;5071904;28;20213;-80
2022/12/07 03:08:52;;;;;;;9.15;2.03;;;25.50;99.90;;;;;;5067504;28;20189;-80
2022/12/07 03:11:32;;;;;;;12.63;2.20;;;25.50;99.90;;;;;;5069810;28;20211;-80
2022/12/07 03:14:10;;;;;;;10.68;3.83;;;25.40;99.90;;;;;;5069697;28;20216;-78
2022/12/07 03:16:49;;;;;;;9.32;2.22;;;25.40;99.90;;;;;;5067955;28;20193;-80
2022/12/07 03:19:22;;;;;;;9.55;2.60;;;25.40;99.90;;;;;;5072072;28;20194;-79
2022/12/07 03:21:57;;;;;;;6.03;2.28;;;25.40;99.90;;;;;;5070378;28;20217;-81
2022/12/07 03:24:31;;;;;;;7.20;2.40;;;25.40;99.90;;;;;;5072124;28;20201;-80
2022/12/07 03:27:08;;;;;;;7.97;2.40;;;25.40;99.90;;;;;;5071718;28;20583;-81
2022/12/07 03:29:42;;;;;;;9.00;2.00;;;25.40;99.90;;;;;;5070501;28;20192;-81
2022/12/07 03:32:22;;;;;;;10.13;2.40;;;25.50;99.90;;;;;;5069644;28;20188;-81
2022/12/07 03:34:55;;;;;;;5.60;2.10;;;25.50;99.90;;;;;;5069648;28;20716;-81
2022/12/07 03:37:32;;;;;;;8.88;2.30;;;25.50;99.90;;;;;;5071650;28;20279;-81
2022/12/07 03:40:10;;;;;;;5.70;1.90;;;25.50;99.90;;;;;;5072357;28;20192;-82
2022/12/07 03:42:41;;;;;;;6.70;2.17;;;25.40;99.90;;;;;;5070104;28;20204;-80
2022/12/07 03:45:13;;;;;;;7.45;2.03;;;25.40;99.90;;;;;;5069915;28;20574;-80
2022/12/07 03:47:50;;;;;;;7.60;2.00;;;25.50;99.90;;;;;;5069559;28;20573;-80
2022/12/07 03:50:30;;;;;;;11.00;2.17;;;25.60;99.90;;;;;;5071234;28;20242;-80
2022/12/07 03:53:07;;;;;;;8.27;2.25;;;25.60;99.90;;;;;;5070139;28;20200;-80
2022/12/07 03:55:41;;;;;;;7.38;1.92;;;25.70;99.90;;;;;;5071164;28;20224;-81
2022/12/07 03:58:15;;;;;;;5.13;2.00;;;25.70;99.90;;;;;;5068066;28;20185;-79
2022/12/07 04:00:47;;;;;;;5.82;1.60;;;25.70;99.90;;;;;;5071291;28;20649;-79
2022/12/07 04:03:19;;;;;;;9.13;2.22;;;25.70;99.90;;;;;;5066717;28;20208;-80
2022/12/07 04:05:50;;;;;;;3.03;1.60;;;25.60;99.90;;;;;;5067406;28;20308;-81
2022/12/07 04:08:21;;;;;;;8.40;1.80;;;25.60;99.90;;;;;;5070242;28;20197;-80
2022/12/07 04:10:52;;;;;;;5.13;1.40;;;25.60;99.90;;;;;;5064507;28;20212;-79
2022/12/07 04:13:23;;;;;;;4.72;1.45;;;25.50;99.90;;;;;;5065607;28;20201;-80
2022/12/07 04:15:54;;;;;;;3.92;0.65;;;25.50;99.90;;;;;;5068464;28;21827;-80
2022/12/07 04:18:27;;;;;;;2.10;0.63;;;25.60;99.90;;;;;;5069878;28;20207;-80
2022/12/07 04:20:57;;;;;;;2.92;0.40;;;25.70;99.90;;;;;;5068517;28;20251;-80
2022/12/07 04:23:28;;;;;;;1.85;0.50;;;25.80;99.90;;;;;;5067944;28;20201;-80
2022/12/07 04:25:59;;;;;;;0.95;0.52;;;26.00;99.90;;;;;;5071936;28;20185;-80
2022/12/07 04:28:30;;;;;;;2.17;0.52;;;26.10;99.90;;;;;;5070702;28;20287;-81
2022/12/07 04:31:01;;;;;;;1.30;0.57;;;26.10;99.90;;;;;;5070518;28;20204;-81
2022/12/07 04:33:34;;;;;;;1.85;0.68;;;26.10;99.90;;;;;;5067455;28;20623;-80
2022/12/07 04:36:04;;;;;;;1.50;0.45;;;26.20;99.90;;;;;;5069332;28;20199;-82
2022/12/07 04:38:36;;;;;;;2.88;0.40;;;26.30;99.90;;;;;;5071612;28;20189;-81
2022/12/07 04:41:09;;;;;;;2.10;0.30;;;26.30;98.30;;;;;;5070736;28;20618;-77
2022/12/07 04:43:40;;;;;;;2.45;0.40;;;26.40;98.20;;;;;;5069189;28;20193;-79
2022/12/07 04:46:11;;;;;;;1.80;0.32;;;26.40;95.90;;;;;;5067789;28;20219;-79
2022/12/07 04:48:44;;;;;;;1.67;0.32;;;26.40;96.60;;;;;;5068595;28;20554;-81
2022/12/07 04:51:21;;;;;;;0.52;0.30;;;26.30;94.90;;;;;;5064011;28;20190;-80
2022/12/07 04:53:53;;;;;;;0.85;0.43;;;26.40;94.60;;;;;;5069769;28;20197;-77
2022/12/07 04:56:24;;;;;;;0.82;0.35;;;26.50;94.70;;;;;;5067934;28;20272;-78
2022/12/07 04:58:56;;;;;;;0.63;0.30;;;26.50;93.40;;;;;;5066752;28;20200;-75
2022/12/07 05:01:27;;;;;;;1.52;0.38;;;26.60;92.80;;;;;;5069852;28;20197;-81
2022/12/07 05:04:00;;;;;;;1.15;0.50;;;26.60;91.80;;;;;;5069332;28;20664;-80
2022/12/07 05:06:31;;;;;;;0.95;0.40;;;26.60;91.90;;;;;;5068395;28;20221;-80
2022/12/07 05:09:02;;;;;;;0.98;0.30;;;26.70;92.40;;;;;;5070705;28;20204;-81
2022/12/07 05:11:41;;;;;;;0.82;0.20;;;26.70;92.10;;;;;;5071164;28;20641;-79
2022/12/07 05:14:15;;;;;;;1.38;0.30;;;26.70;92.70;;;;;;5066576;28;20212;-76
2022/12/07 05:16:47;;;;;;;2.85;0.30;;;26.60;93.40;;;;;;5066779;28;20188;-80
2022/12/07 05:19:20;;;;;;;1.33;0.40;;;26.40;92.80;;;;;;5068617;28;20220;-79
2022/12/07 05:21:52;;;;;;;2.92;0.40;;;26.40;93.50;;;;;;5069168;28;20594;-79
2022/12/07 05:24:26;;;;;;;1.25;0.50;;;26.30;92.90;;;;;;5068834;28;20199;-79
2022/12/07 05:26:57;;;;;;;1.02;0.47;;;26.30;92.90;;;;;;5071638;28;20196;-80
2022/12/07 05:29:28;;;;;;;1.83;0.70;;;26.20;93.10;;;;;;5071011;28;20200;-81
2022/12/07 05:31:59;;;;;;;2.88;0.47;;;26.10;93.40;;;;;;5071289;28;20598;-78
2022/12/07 05:34:31;;;;;;;2.47;0.60;;;26.10;93.80;;;;;;5070997;28;20235;-78
2022/12/07 05:37:02;;;;;;;1.17;0.80;;;26.00;93.80;;;;;;5068272;28;20568;-79
2022/12/07 05:39:33;;;;;;;0.63;0.63;;;25.90;93.40;;;;;;5069054;28;20549;-80
2022/12/07 05:42:16;;;;;;;4.40;0.80;;;25.90;94.00;;;;;;5069213;28;20181;-80
2022/12/07 05:44:48;;;;;;;2.47;0.73;;;25.90;93.80;;;;;;5070192;28;20185;-80
2022/12/07 05:47:19;;;;;;;2.20;0.70;;;25.90;93.70;;;;;;5069422;28;20215;-80
2022/12/07 05:49:52;;;;;;;1.13;0.60;;;25.90;93.40;;;;;;5071286;28;20189;-80
2022/12/07 05:52:22;;;;;;;2.25;0.80;;;26.00;93.50;;;;;;5069692;28;20203;-81
2022/12/07 05:54:53;;;;;;;3.10;0.70;;;26.00;93.40;;;;;;5070264;28;20217;-80
2022/12/07 05:57:24;;;;;;;2.97;0.50;;;25.90;93.70;;;;;;5068045;28;20276;-78
2022/12/07 05:59:53;;;;;;;2.78;0.52;;;25.90;93.80;;;;;;5067815;28;20201;-80
2022/12/07 06:02:24;;;;;;;2.80;0.50;;;25.80;93.50;;;;;;5066343;28;20197;-79
2022/12/07 06:04:59;;;;;;;1.77;0.35;;;25.80;93.90;;;;;;5067667;28;20235;-80
2022/12/07 06:07:30;;;;;;;1.85;0.60;;;25.70;94.10;;;;;;5066644;28;20228;-80
2022/12/07 06:10:00;;;;;;;2.30;0.50;;;25.60;94.40;;;;;;5068345;28;20276;-81
2022/12/07 06:12:37;;;;;;;3.25;0.63;;;25.60;94.30;;;;;;5068827;28;20186;-82
2022/12/07 06:15:08;;;;;;;1.85;0.40;;;25.60;93.60;;;;;;5072162;28;20581;-79
2022/12/07 06:17:39;;;;;;;1.27;0.50;;;25.60;94.00;;;;;;5074059;28;20193;-80
2022/12/07 06:20:13;;;;;;;1.35;0.50;;;25.60;94.70;;;;;;5072950;28;20233;-81
2022/12/07 06:22:44;;;;;;;2.38;0.47;;;25.60;94.40;;;;;;5071307;28;20679;-79
2022/12/07 06:25:15;;;;;;;1.77;0.55;;;25.60;94.50;;;;;;5069944;28;20200;-80
2022/12/07 06:27:45;;;;;;;1.65;0.50;;;25.60;95.00;;;;;;5073933;28;20185;-80
2022/12/07 06:30:16;;;;;;;1.45;0.63;;;25.60;95.40;;;;;;5072040;28;20189;-81
2022/12/07 06:32:47;;;;;;;2.80;0.70;;;25.40;96.00;;;;;;5072716;28;20656;-82
2022/12/07 06:35:20;;;;;;;2.35;0.50;;;25.40;96.20;;;;;;5073682;28;20578;-80
2022/12/07 06:37:51;;;;;;;1.65;0.50;;;25.20;97.20;;;;;;5074167;28;20659;-82
2022/12/07 06:40:21;;;;;;;3.58;0.55;;;25.20;98.40;;;;;;5072559;28;20204;-81
2022/12/07 06:42:52;;;;;;;2.15;0.52;;;25.10;99.90;;;;;;5074390;28;20588;-81
2022/12/07 06:45:23;;;;;;;3.17;0.50;;;25.10;99.90;;;;;;5073956;28;20205;-82
2022/12/07 06:47:54;;;;;;;5.18;0.70;;;25.10;99.90;;;;;;5071556;28;20197;-83
2022/12/07 06:50:26;;;;;;;1.80;0.50;;;25.10;99.90;;;;;;5074612;28;20246;-81
2022/12/07 06:52:57;;;;;;;1.67;0.50;;;25.00;99.90;;;;;;5073944;28;20187;-81
2022/12/07 06:55:28;;;;;;;6.78;0.60;;;25.00;99.90;;;;;;5073680;28;20213;-76
2022/12/07 06:57:59;;;;;;;0.95;0.40;;;25.00;99.90;;;;;;5074281;28;20191;-84
2022/12/07 07:00:30;;;;;;;1.23;0.40;;;25.00;99.90;;;;;;5072799;28;20283;-81
2022/12/07 07:03:01;;;;;;;1.30;0.40;;;24.90;99.90;;;;;;5071281;28;20208;-81
2022/12/07 07:05:34;;;;;;;5.13;0.68;;;24.80;99.90;;;;;;5071116;28;20246;-82
2022/12/07 07:08:05;;;;;;;2.83;0.60;;;24.80;99.90;;;;;;5070124;28;20181;-81
2022/12/07 07:10:35;;;;;;;3.70;0.60;;;24.70;99.90;;;;;;5068201;28;20680;-82
2022/12/07 07:13:07;;;;;;;0.70;0.50;;;24.60;99.90;;;;;;5068001;28;20552;-81
2022/12/07 07:15:39;;;;;;;1.17;0.60;;;24.60;99.90;;;;;;5068706;28;20209;-81
2022/12/07 07:18:10;;;;;;;1.63;0.38;;;24.60;99.90;;;;;;5070851;28;20215;-81
2022/12/07 07:20:43;;;;;;;1.15;0.55;;;24.50;99.90;;;;;;5072341;28;20229;-82
2022/12/07 07:23:17;;;;;;;2.85;0.52;;;24.50;99.90;;;;;;5070441;28;20189;-81
2022/12/07 07:25:48;;;;;;;4.75;0.60;;;24.40;99.90;;;;;;5070920;28;20199;-82
2022/12/07 07:28:19;;;;;;;3.15;0.50;;;24.40;99.90;;;;;;5073240;28;20199;-78
2022/12/07 07:30:50;;;;;;;1.02;0.60;;;24.40;99.90;;;;;;5071820;28;20239;-80
2022/12/07 07:33:20;;;;;;;0.90;0.40;;;24.40;99.90;;;;;;5070839;28;20279;-82
2022/12/07 07:35:53;;;;;;;1.23;0.43;;;24.40;99.90;;;;;;5072742;28;20217;-81
2022/12/07 07:38:24;;;;;;;1.20;0.50;;;24.30;99.90;;;;;;5072178;28;20660;-80
2022/12/07 07:40:54;;;;;;;0.68;0.47;;;24.30;99.90;;;;;;5070004;28;20570;-80
2022/12/07 07:43:25;;;;;;;0.75;0.40;;;24.30;99.90;;;;;;5072349;28;20565;-82
2022/12/07 07:45:56;;;;;;;0.45;0.40;;;24.30;99.90;;;;;;5070678;28;20276;-81
2022/12/07 07:48:27;;;;;;;2.63;0.40;;;24.30;99.90;;;;;;5073107;28;20193;-81
2022/12/07 07:50:59;;;;;;;0.60;0.40;;;24.10;99.90;;;;;;5072542;28;20192;-78
2022/12/07 07:53:30;;;;;;;1.00;0.40;;;24.20;99.90;;;;;;5069623;28;20192;-80
2022/12/07 07:56:01;;;;;;;0.90;0.40;;;24.10;99.90;;;;;;5070667;28;20213;-78
2022/12/07 07:58:32;;;;;;;1.05;0.40;;;24.10;99.90;;;;;;5073114;28;20268;-82
2022/12/07 08:01:08;;;;;;;5.93;0.63;;;24.10;99.90;;;;;;5067556;28;20272;-81
2022/12/07 08:03:39;;;;;;;2.33;0.60;;;24.00;99.90;;;;;;5065805;28;20181;-81
2022/12/07 08:06:12;;;;;;;1.33;0.40;;;24.00;99.90;;;;;;5068261;28;20219;-79
2022/12/07 08:08:44;;;;;;;2.00;0.43;;;24.00;99.90;;;;;;5068801;28;20200;-83
2022/12/07 08:11:15;;;;;;;1.38;0.50;;;23.90;99.90;;;;;;5069637;28;20200;-79
2022/12/07 08:13:47;;;;;;;3.05;1.42;;;23.90;99.90;;;;;;5069975;28;20208;-80
2022/12/07 08:16:18;;;;;;;22.30;16.33;;;23.90;99.90;;;;;;5066709;28;20216;-81
2022/12/07 08:18:49;;;;;;;4.55;3.72;;;23.80;99.90;;;;;;5071499;28;20291;-80
2022/12/07 08:21:21;;;;;;;5.90;1.90;;;23.80;99.90;;;;;;5071972;28;20223;-81
2022/12/07 08:23:52;;;;;;;1.90;0.90;;;23.80;99.90;;;;;;5070555;28;20208;-81
2022/12/07 08:26:23;;;;;;;2.13;0.80;;;23.80;99.90;;;;;;5072479;28;20567;-80
2022/12/07 08:28:55;;;;;;;0.85;0.65;;;23.80;99.90;;;;;;5070369;28;20205;-77
2022/12/07 08:31:27;;;;;;;3.60;0.70;;;23.80;99.90;;;;;;5071442;28;20671;-80
2022/12/07 08:33:58;;;;;;;1.00;0.60;;;23.70;99.90;;;;;;5070893;28;20257;-82
2022/12/07 08:36:31;;;;;;;0.85;0.60;;;23.70;99.90;;;;;;5072740;28;20213;-81
2022/12/07 08:39:02;;;;;;;0.80;0.47;;;23.70;99.90;;;;;;5071450;28;20204;-82
2022/12/07 08:41:33;;;;;;;1.90;0.50;;;23.70;99.90;;;;;;5071227;28;20592;-82
2022/12/07 08:44:03;;;;;;;2.33;0.50;;;23.70;99.90;;;;;;5072188;28;20180;-82
2022/12/07 08:46:37;;;;;;;1.25;0.40;;;23.60;99.90;;;;;;5070375;28;20291;-82
2022/12/07 08:49:11;;;;;;;0.73;0.60;;;23.60;99.90;;;;;;5071110;28;20526;-82
2022/12/07 08:51:44;;;;;;;2.78;0.77;;;23.60;99.90;;;;;;5069252;28;20552;-81
2022/12/07 08:54:19;;;;;;;75.10;54.05;;;23.50;99.90;;;;;;5070790;28;20181;-79
2022/12/07 08:56:53;;;;;;;8.57;6.18;;;23.50;99.90;;;;;;5070879;28;20212;-80
2022/12/07 08:59:25;;;;;;;3.63;2.70;;;23.40;99.90;;;;;;5070394;28;21926;-82
2022/12/07 09:01:56;;;;;;;3.75;1.80;;;23.40;99.90;;;;;;5070497;28;20199;-83
2022/12/07 09:04:27;;;;;;;1.38;1.02;;;23.40;99.90;;;;;;5071225;28;20221;-83
2022/12/07 09:07:05;;;;;;;3.75;1.70;;;23.30;99.90;;;;;;5070262;28;20791;-83
2022/12/07 09:09:37;;;;;;;1.95;1.33;;;23.30;99.90;;;;;;5068770;28;20189;-84
2022/12/07 09:12:08;;;;;;;2.45;1.27;;;23.30;99.90;;;;;;5068272;28;20193;-81
2022/12/07 09:14:39;;;;;;;1.20;0.75;;;23.30;99.90;;;;;;5064346;28;20216;-84
2022/12/07 09:17:11;;;;;;;1.70;0.90;;;23.30;99.90;;;;;;5069976;28;20217;-84
2022/12/07 09:19:43;;;;;;;1.00;0.90;;;23.30;99.90;;;;;;5066637;28;20181;-83
2022/12/07 09:22:16;;;;;;;0.98;0.80;;;23.20;99.90;;;;;;5065786;28;20680;-82
2022/12/07 09:24:47;;;;;;;0.70;0.70;;;23.20;99.90;;;;;;5066739;28;20275;-81
2022/12/07 09:27:18;;;;;;;0.93;0.63;;;23.20;99.90;;;;;;5068605;28;20188;-84
2022/12/07 09:29:49;;;;;;;1.52;0.60;;;23.20;99.90;;;;;;5069199;28;20220;-82
2022/12/07 09:32:23;;;;;;;1.92;0.50;;;23.20;99.90;;;;;;5069934;28;20187;-81
2022/12/07 09:34:53;;;;;;;1.10;0.50;;;23.20;99.90;;;;;;5071664;28;20230;-84
2022/12/07 09:37:26;;;;;;;1.60;0.47;;;23.20;99.90;;;;;;5071013;28;20621;-82
2022/12/07 09:39:57;;;;;;;0.82;0.40;;;23.20;99.90;;;;;;5071259;28;20191;-83
2022/12/07 09:42:35;;;;;;;1.60;0.60;;;23.10;99.90;;;;;;5071487;28;20185;-83
2022/12/07 09:45:07;;;;;;;1.25;0.60;;;23.10;99.90;;;;;;5069592;28;20201;-85
2022/12/07 09:47:38;;;;;;;0.43;0.35;;;23.00;99.90;;;;;;5070462;28;20630;-83
2022/12/07 09:50:15;;;;;;;1.48;0.50;;;23.00;99.90;;;;;;5071678;28;20616;-84
2022/12/07 09:52:49;;;;;;;0.93;0.50;;;23.00;99.90;;;;;;5072448;28;20203;-82
2022/12/07 09:55:26;;;;;;;1.77;0.55;;;23.00;99.90;;;;;;5073258;28;20217;-83
2022/12/07 09:57:57;;;;;;;2.35;0.60;;;22.90;99.90;;;;;;5075454;28;20195;-82
2022/12/07 10:00:29;;;;;;;1.67;0.50;;;22.80;99.90;;;;;;5073482;28;20189;-83
2022/12/07 10:03:01;;;;;;;1.10;0.50;;;22.80;99.90;;;;;;5073986;28;20185;-83
2022/12/07 10:05:35;;;;;;;2.50;0.60;;;22.80;99.90;;;;;;5072945;28;20220;-82
2022/12/07 10:08:08;;;;;;;0.70;0.50;;;22.70;99.90;;;;;;5071925;28;20185;-82
2022/12/07 10:10:39;;;;;;;0.65;0.50;;;22.70;99.90;;;;;;5072477;28;20199;-83
2022/12/07 10:13:12;;;;;;;0.80;0.50;;;22.60;99.90;;;;;;5074452;28;20192;-82
2022/12/07 10:15:54;;;;;;;2.47;0.60;;;22.60;99.90;;;;;;5071611;28;20217;-81
2022/12/07 10:18:33;;;;;;;1.85;0.70;;;22.50;99.90;;;;;;5071291;28;20263;-82
2022/12/07 10:21:16;;;;;;;2.55;0.60;;;22.50;99.90;;;;;;5072284;28;20217;-82
2022/12/07 10:24:03;;;;;;;0.98;0.60;;;22.50;99.90;;;;;;5072674;28;20193;-82
2022/12/07 10:26:36;;;;;;;3.58;0.60;;;22.50;99.90;;;;;;5075381;28;20193;-80
2022/12/07 10:29:19;;;;;;;1.92;0.68;;;22.40;99.90;;;;;;5071253;28;20560;-82
2022/12/07 10:31:53;;;;;;;1.35;0.73;;;22.40;99.90;;;;;;5072712;28;20250;-83
2022/12/07 10:34:26;;;;;;;1.27;0.70;;;22.40;99.90;;;;;;5074206;28;20220;-81
2022/12/07 10:37:09;;;;;;;2.65;0.77;;;22.40;99.90;;;;;;5072980;28;20209;-83
2022/12/07 10:39:48;;;;;;;1.70;0.70;;;22.40;99.90;;;;;;5068295;28;20490;-85
2022/12/07 10:42:24;;;;;;;53.13;42.50;;;22.50;99.90;;;;;;5074404;28;20195;-81
2022/12/07 10:45:12;;;;;;;22.38;17.60;;;22.50;99.90;;;;;;5070656;28;20206;-81
2022/12/07 10:47:51;;;;;;;5.93;4.07;;;22.50;99.90;;;;;;5071173;28;20280;-81
2022/12/07 10:50:43;;;;;;;5.82;1.98;;;22.50;99.90;;;;;;5071112;28;20196;-80
2022/12/07 10:53:49;;;;;;;3.05;1.77;;;22.50;99.90;;;;;;5068724;28;20203;-82
2022/12/07 10:56:48;;;;;;;3.85;1.08;;;22.50;99.90;;;;;;5032316;28;20220;-82
2022/12/07 10:59:41;;;;;;;2.33;1.02;;;22.50;99.90;;;;;;5073541;28;20222;-82
2022/12/07 11:02:23;;;;;;;2.45;1.08;;;22.50;99.90;;;;;;5065607;28;20196;-81
2022/12/07 11:05:04;;;;;;;1.77;0.90;;;22.50;99.90;;;;;;5073190;28;20201;-82
2022/12/07 11:07:44;;;;;;;1.85;0.90;;;22.50;99.90;;;;;;5074174;28;20250;-82
2022/12/07 11:10:24;;;;;;;1.55;0.70;;;22.40;99.90;;;;;;5071519;28;20276;-82
2022/12/07 11:13:10;;;;;;;3.83;0.80;;;22.40;99.90;;;;;;5070580;28;20207;-82
2022/12/07 11:16:03;;;;;;;2.67;0.73;;;22.40;99.90;;;;;;5066091;28;20196;-82
2022/12/07 11:18:46;;;;;;;2.35;0.50;;;22.40;99.90;;;;;;5072544;28;20189;-81
2022/12/07 11:21:25;;;;;;;1.30;0.68;;;22.40;99.90;;;;;;5069307;28;20240;-82
2022/12/07 11:24:05;;;;;;;1.00;0.70;;;22.40;99.90;;;;;;5072641;28;20201;-82
2022/12/07 11:26:55;;;;;;;0.95;0.50;;;22.40;99.90;;;;;;5071143;28;20264;-81
2022/12/07 11:29:59;;;;;;;1.15;0.70;;;22.40;99.90;;;;;;5071020;28;20225;-81
2022/12/07 11:32:56;;;;;;;2.05;0.80;;;22.40;99.90;;;;;;5064124;28;20201;-81
2022/12/07 11:35:38;;;;;;;3.53;0.73;;;22.30;99.90;;;;;;5068290;28;20197;-82
2022/12/07 11:38:17;;;;;;;0.50;0.40;;;22.40;99.90;;;;;;5066428;28;20208;-81
2022/12/07 11:40:50;;;;;;;2.15;0.60;;;22.40;99.90;;;;;;5072351;28;20262;-82
2022/12/07 11:43:28;;;;;;;0.77;0.57;;;22.40;99.90;;;;;;5066999;28;20204;-82
2022/12/07 11:46:06;;;;;;;2.00;0.60;;;22.40;99.90;;;;;;5071271;28;20203;-82
2022/12/07 11:48:40;;;;;;;0.47;0.40;;;22.40;99.90;;;;;;5064630;28;20200;-81
2022/12/07 11:51:14;;;;;;;1.20;0.68;;;22.40;99.90;;;;;;5065217;28;20192;-84
2022/12/07 11:53:52;;;;;;;0.40;0.40;;;22.40;99.90;;;;;;5066852;28;20192;-83
2022/12/07 11:56:25;;;;;;;1.95;0.43;;;22.40;99.90;;;;;;5067754;28;20764;-82
2022/12/07 11:59:00;;;;;;;3.05;0.63;;;22.30;99.90;;;;;;5071724;28;20199;-82
2022/12/07 12:01:44;;;;;;;1.25;0.50;;;22.30;99.90;;;;;;5066614;28;20724;-81
2022/12/07 12:04:29;;;;;;;1.02;0.50;;;22.30;99.90;;;;;;5070219;28;20195;-81
2022/12/07 12:07:00;;;;;;;0.43;0.30;;;22.30;99.90;;;;;;5069783;28;20192;-81
2022/12/07 12:09:34;;;;;;;1.20;0.50;;;22.20;99.90;;;;;;5072014;28;20213;-80
2022/12/07 12:12:33;;;;;;;0.73;0.50;;;22.20;99.90;;;;;;5067117;28;20588;-82
2022/12/07 12:15:21;;;;;;;1.10;0.60;;;22.20;99.90;;;;;;5069431;28;20657;-82
2022/12/07 12:18:19;;;;;;;3.20;0.68;;;22.20;99.90;;;;;;5068670;28;20714;-81
2022/12/07 12:20:52;;;;;;;1.58;0.68;;;22.20;99.90;;;;;;5069015;28;20224;-81
2022/12/07 12:23:26;;;;;;;1.80;0.50;;;22.10;99.90;;;;;;5065567;28;20620;-81
2022/12/07 12:25:59;;;;;;;0.88;0.50;;;22.10;99.90;;;;;;5069940;28;20284;-84
2022/12/07 12:28:35;;;;;;;1.00;0.40;;;22.10;99.90;;;;;;5064257;28;20197;-81
2022/12/07 12:31:12;;;;;;;1.70;0.55;;;22.00;99.90;;;;;;5062528;28;20196;-81
2022/12/07 12:33:48;;;;;;;1.25;0.55;;;22.00;99.90;;;;;;5070075;28;20242;-83
2022/12/07 12:36:25;;;;;;;1.13;0.43;;;22.00;99.90;;;;;;5063522;28;20655;-83
2022/12/07 12:39:13;;;;;;;0.65;0.47;;;21.90;99.90;;;;;;5070975;28;20204;-81
2022/12/07 12:42:10;;;;;;;2.00;0.68;;;21.90;99.90;;;;;;5065028;28;20288;-81
2022/12/07 12:45:08;;;;;;;1.02;0.60;;;21.80;99.90;;;;;;5068284;28;20276;-82
2022/12/07 12:47:58;;;;;;;1.10;0.52;;;21.80;99.90;;;;;;5067720;28;20339;-83
2022/12/07 12:50:38;;;;;;;1.63;0.60;;;21.90;99.90;;;;;;5071022;28;20674;-83
2022/12/07 12:53:24;;;;;;;0.98;0.55;;;21.90;99.90;;;;;;5068348;28;20660;-82
2022/12/07 12:56:31;;;;;;;0.88;0.50;;;21.90;99.90;;;;;;5069509;28;20201;-80
2022/12/07 12:59:26;;;;;;;0.80;0.50;;;21.90;99.90;;;;;;5065145;28;20197;-82
2022/12/07 13:02:09;;;;;;;1.52;0.60;;;21.90;99.90;;;;;;5069277;28;20197;-80
2022/12/07 13:04:58;;;;;;;2.13;0.70;;;21.80;99.90;;;;;;5067781;28;20200;-79
2022/12/07 13:08:05;;;;;;;1.45;0.65;;;21.80;99.90;;;;;;5061696;28;20193;-84
2022/12/07 13:10:47;;;;;;;0.68;0.50;;;21.70;99.90;;;;;;5070698;28;20586;-84
2022/12/07 13:13:35;;;;;;;1.73;0.80;;;21.70;99.90;;;;;;5070071;28;20195;-83
2022/12/07 13:16:40;;;;;;;1.50;0.70;;;21.60;99.90;;;;;;5070526;28;20227;-81
2022/12/07 13:19:42;;;;;;;2.97;0.70;;;21.50;99.90;;;;;;5066592;28;20197;-83
2022/12/07 13:22:44;;;;;;;2.05;0.77;;;21.50;99.90;;;;;;5058093;28;20215;-82
2022/12/07 13:25:31;;;;;;;3.72;1.42;;;21.40;99.90;;;;;;5062264;28;20197;-81
2022/12/07 13:28:10;;;;;;;0.52;0.50;;;21.30;99.90;;;;;;5069436;28;20193;-82